createdAt,value
2023-01-09T00:00:00.483Z,100.00
2023-01-09T00:03:13.338Z,100.00
2023-01-09T00:06:25.622Z,100.00
2023-01-09T00:09:38.004Z,100.00
2023-01-09T00:12:50.333Z,100.00
2023-01-09T00:16:02.900Z,100.00
2023-01-09T00:19:15.748Z,100.00
2023-01-09T00:22:28.168Z,100.00
2023-01-09T00:25:42.508Z,100.00
2023-01-09T00:28:56.876Z,100.00
2023-01-09T00:32:10.823Z,100.00
2023-01-09T00:35:24.738Z,100.00
2023-01-09T00:38:37.504Z,100.00
2023-01-09T00:41:52.996Z,100.00
2023-01-09T00:45:09.601Z,100.00
2023-01-09T00:48:26.883Z,100.00
2023-01-09T00:51:39.194Z,100.00
2023-01-09T00:54:52.342Z,100.00
2023-01-09T00:58:05.051Z,100.00
2023-01-09T01:01:17.375Z,100.00
2023-01-09T01:04:44.230Z,100.00
2023-01-09T01:07:56.449Z,100.00
2023-01-09T01:11:13.174Z,100.00
2023-01-09T01:14:25.213Z,100.00
2023-01-09T01:17:37.371Z,100.00
2023-01-09T01:20:50.952Z,100.00
2023-01-09T01:24:03.056Z,100.00
2023-01-09T01:27:15.097Z,100.00
2023-01-09T01:30:28.071Z,100.00
2023-01-09T01:33:41.275Z,100.00
2023-01-09T01:36:53.355Z,100.00
2023-01-09T01:40:05.726Z,100.00
2023-01-09T01:43:19.910Z,100.00
2023-01-09T01:46:32.668Z,100.00
2023-01-09T01:49:45.406Z,100.00
2023-01-09T01:53:03.896Z,100.00
2023-01-09T01:56:20.709Z,100.00
2023-01-09T01:59:37.551Z,100.00
2023-01-09T02:02:49.973Z,100.00
2023-01-09T02:06:04.463Z,100.00
2023-01-09T02:09:19.158Z,100.00
2023-01-09T02:12:33.574Z,100.00
2023-01-09T02:16:02.107Z,100.00
2023-01-09T02:19:25.375Z,100.00
2023-01-09T02:22:44.761Z,100.00
2023-01-09T02:26:26.098Z,100.00
2023-01-09T02:30:28.369Z,100.00
2023-01-09T02:33:52.419Z,100.00
2023-01-09T02:37:09.392Z,100.00
2023-01-09T02:40:26.104Z,100.00
2023-01-09T02:43:38.610Z,100.00
2023-01-09T02:46:51.199Z,100.00
2023-01-09T02:50:06.230Z,100.00
2023-01-09T02:53:41.290Z,100.00
2023-01-09T02:57:12.507Z,100.00
2023-01-09T03:00:34.815Z,100.00
2023-01-09T03:03:53.388Z,100.00
2023-01-09T03:07:11.610Z,100.00
2023-01-09T03:10:28.390Z,100.00
2023-01-09T03:13:46.419Z,100.00
2023-01-09T03:17:03.212Z,100.00
2023-01-09T03:20:20.765Z,100.00
2023-01-09T03:23:32.928Z,100.00
2023-01-09T03:26:45.395Z,100.00
2023-01-09T03:29:57.988Z,100.00
2023-01-09T03:33:10.543Z,100.00
2023-01-09T03:36:25.065Z,100.00
2023-01-09T03:39:37.571Z,100.00
2023-01-09T03:42:52.229Z,100.00
2023-01-09T03:46:04.647Z,100.00
2023-01-09T03:49:17.566Z,100.00
2023-01-09T03:52:29.654Z,100.00
2023-01-09T03:55:41.828Z,100.00
2023-01-09T03:58:54.486Z,100.00
2023-01-09T04:02:06.735Z,100.00
2023-01-09T04:05:19.344Z,100.00
2023-01-09T04:08:31.650Z,100.00
2023-01-09T04:11:43.706Z,100.00
2023-01-09T04:14:55.979Z,100.00
2023-01-09T04:18:08.633Z,100.00
2023-01-09T04:21:20.649Z,100.00
2023-01-09T04:24:32.796Z,100.00
2023-01-09T04:27:45.208Z,100.00
2023-01-09T04:30:57.355Z,100.00
2023-01-09T04:34:09.565Z,100.00
2023-01-09T04:37:22.004Z,100.00
2023-01-09T04:40:34.141Z,100.00
2023-01-09T04:43:46.253Z,100.00
2023-01-09T04:46:58.883Z,100.00
2023-01-09T04:50:12.610Z,100.00
2023-01-09T04:53:24.777Z,100.00
2023-01-09T04:56:37.102Z,100.00
2023-01-09T04:59:49.558Z,100.00
2023-01-09T05:03:02.874Z,100.00
2023-01-09T05:06:15.551Z,100.00
2023-01-09T05:09:27.986Z,100.00
2023-01-09T05:12:40.472Z,100.00
2023-01-09T05:15:52.572Z,100.00
2023-01-09T05:19:04.727Z,100.00
2023-01-09T05:22:16.926Z,100.00
2023-01-09T05:25:29.076Z,100.00
2023-01-09T05:28:41.276Z,100.00
2023-01-09T05:31:53.494Z,100.00
2023-01-09T05:35:05.746Z,100.00
2023-01-09T05:38:17.833Z,100.00
2023-01-09T05:41:30.077Z,100.00
2023-01-09T05:44:42.376Z,100.00
2023-01-09T05:47:54.425Z,100.00
2023-01-09T05:51:06.745Z,100.00
2023-01-09T05:54:19.003Z,100.00
2023-01-09T05:57:31.263Z,100.00
2023-01-09T06:00:43.480Z,100.00
2023-01-09T06:03:55.576Z,100.00
2023-01-09T06:07:07.689Z,100.00
2023-01-09T06:10:22.027Z,100.00
2023-01-09T06:13:34.297Z,100.00
2023-01-09T06:16:46.494Z,100.00
2023-01-09T06:19:58.618Z,100.00
2023-01-09T06:23:12.205Z,100.00
2023-01-09T06:26:25.119Z,100.00
2023-01-09T06:29:37.221Z,100.00
2023-01-09T06:32:49.352Z,100.00
2023-01-09T06:36:01.505Z,100.00
2023-01-09T06:39:14.108Z,100.00
2023-01-09T06:42:26.517Z,100.00
2023-01-09T06:45:38.589Z,100.00
2023-01-09T06:48:50.649Z,100.00
2023-01-09T06:52:04.874Z,100.00
2023-01-09T06:55:17.793Z,100.00
2023-01-09T06:58:29.995Z,100.00
2023-01-09T07:01:43.414Z,100.00
2023-01-09T07:04:55.972Z,100.00
2023-01-09T07:08:08.250Z,100.00
2023-01-09T07:11:20.303Z,100.00
2023-01-09T07:14:32.511Z,100.00
2023-01-09T07:17:44.756Z,100.00
2023-01-09T07:20:57.223Z,100.00
2023-01-09T07:24:09.597Z,100.00
2023-01-09T07:27:22.170Z,100.00
2023-01-09T07:30:34.196Z,100.00
2023-01-09T07:33:46.240Z,100.00
2023-01-09T07:36:58.365Z,100.00
2023-01-09T07:40:12.500Z,100.00
2023-01-09T07:43:24.877Z,100.00
2023-01-09T07:46:37.382Z,100.00
2023-01-09T07:49:49.404Z,100.00
2023-01-09T07:53:01.556Z,100.00
2023-01-09T07:56:14.831Z,100.00
2023-01-09T07:59:27.871Z,100.00
2023-01-09T08:02:40.136Z,100.00
2023-01-09T08:05:53.752Z,100.00
2023-01-09T08:09:05.840Z,100.00
2023-01-09T08:12:17.909Z,100.00
2023-01-09T08:15:30.925Z,100.00
2023-01-09T08:18:42.867Z,100.00
2023-01-09T08:21:55.014Z,100.00
2023-01-09T08:25:06.845Z,100.00
2023-01-09T08:28:18.919Z,100.00
2023-01-09T08:31:30.851Z,100.00
2023-01-09T08:34:42.913Z,100.00
2023-01-09T08:37:56.068Z,100.00
2023-01-09T08:41:09.971Z,100.00
2023-01-09T08:44:36.544Z,100.00
2023-01-09T08:47:48.457Z,100.00
2023-01-09T08:51:00.224Z,100.00
2023-01-09T08:54:12.702Z,100.00
2023-01-09T08:57:24.517Z,100.00
2023-01-09T09:00:36.961Z,100.00
2023-01-09T09:03:48.793Z,100.00
2023-01-09T09:07:00.576Z,100.00
2023-01-09T09:10:15.031Z,100.00
2023-01-09T09:13:26.801Z,100.00
2023-01-09T09:16:38.665Z,100.00
2023-01-09T09:19:50.707Z,100.00
2023-01-09T09:23:02.709Z,100.00
2023-01-09T09:26:14.959Z,100.00
2023-01-09T09:29:26.817Z,100.00
2023-01-09T09:32:39.153Z,100.00
2023-01-09T09:35:51.515Z,100.00
2023-01-09T09:39:03.420Z,100.00
2023-01-09T09:43:04.429Z,100.00
2023-01-09T09:46:22.817Z,100.00
2023-01-09T09:49:39.879Z,100.00
2023-01-09T09:52:57.326Z,100.00
2023-01-09T09:56:10.308Z,100.00
2023-01-09T09:59:26.927Z,100.00
2023-01-09T10:02:46.617Z,100.00
2023-01-09T10:06:00.456Z,100.00
2023-01-09T10:09:19.769Z,100.00
2023-01-09T10:12:37.232Z,100.00
2023-01-09T10:15:55.816Z,100.00
2023-01-09T10:19:19.459Z,100.00
2023-01-09T10:22:38.027Z,100.00
2023-01-09T10:25:55.596Z,100.00
2023-01-09T10:29:37.229Z,100.00
2023-01-09T10:33:01.400Z,100.00
2023-01-09T10:36:36.126Z,100.00
2023-01-09T10:39:53.591Z,100.00
2023-01-09T10:43:11.491Z,100.00
2023-01-09T10:46:29.296Z,100.00
2023-01-09T10:49:44.432Z,100.00
2023-01-09T10:52:59.349Z,99.48
2023-01-09T10:56:18.955Z,98.50
2023-01-09T10:59:31.578Z,97.47
2023-01-09T11:02:43.673Z,95.79
2023-01-09T11:06:00.744Z,94.46
2023-01-09T11:09:14.912Z,94.87
2023-01-09T11:12:34.106Z,94.07
2023-01-09T11:15:47.543Z,93.31
2023-01-09T11:19:02.523Z,93.68
2023-01-09T11:22:21.593Z,93.22
2023-01-09T11:25:34.844Z,94.64
2023-01-09T11:28:46.752Z,94.60
2023-01-09T11:32:02.180Z,95.97
2023-01-09T11:35:24.001Z,96.04
2023-01-09T11:38:40.172Z,95.99
2023-01-09T11:41:52.509Z,96.15
2023-01-09T11:45:06.831Z,96.95
2023-01-09T11:48:45.608Z,96.79
2023-01-09T11:52:20.480Z,96.72
2023-01-09T11:55:41.934Z,95.15
2023-01-09T11:58:47.428Z,94.79
2023-01-09T12:02:32.556Z,94.69
2023-01-09T12:05:52.439Z,93.89
2023-01-09T12:09:08.802Z,93.54
2023-01-09T12:12:29.337Z,92.40
2023-01-09T12:15:46.320Z,92.97
2023-01-09T12:19:09.143Z,93.89
2023-01-09T12:22:27.631Z,92.23
2023-01-09T12:25:52.371Z,91.81
2023-01-09T12:29:25.491Z,90.50
2023-01-09T12:32:52.143Z,88.99
2023-01-09T12:36:21.839Z,88.65
2023-01-09T12:39:43.419Z,87.92
2023-01-09T12:43:02.457Z,87.96
2023-01-09T12:46:22.697Z,87.30
2023-01-09T12:49:41.189Z,86.70
2023-01-09T12:52:59.954Z,87.64
2023-01-09T12:56:17.065Z,87.33
2023-01-09T12:59:32.649Z,87.42
2023-01-09T13:02:51.677Z,88.72
2023-01-09T13:06:04.634Z,91.12
2023-01-09T13:09:26.325Z,92.44
2023-01-09T13:12:43.073Z,93.59
2023-01-09T13:15:59.565Z,93.74
2023-01-09T13:19:19.342Z,94.93
2023-01-09T13:22:34.044Z,96.62
2023-01-09T13:25:54.094Z,98.17
2023-01-09T13:29:14.070Z,99.13
2023-01-09T13:32:43.228Z,99.18
2023-01-09T13:36:02.929Z,100.00
2023-01-09T13:39:25.477Z,100.00
2023-01-09T13:42:43.378Z,100.00
2023-01-09T13:45:58.847Z,100.00
2023-01-09T13:49:13.655Z,100.00
2023-01-09T13:52:43.375Z,100.00
2023-01-09T13:56:14.218Z,100.00
2023-01-09T13:59:35.561Z,100.00
2023-01-09T14:03:21.333Z,100.00
2023-01-09T14:06:33.373Z,100.00
2023-01-09T14:09:49.475Z,100.00
2023-01-09T14:13:03.023Z,100.00
2023-01-09T14:16:23.732Z,100.00
2023-01-09T14:19:44.774Z,100.00
2023-01-09T14:23:28.147Z,100.00
2023-01-09T14:26:25.516Z,100.00
2023-01-09T14:29:54.257Z,100.00
2023-01-09T14:33:09.204Z,100.00
2023-01-09T14:36:28.537Z,100.00
2023-01-09T14:39:42.562Z,100.00
2023-01-09T14:42:58.935Z,100.00
2023-01-09T14:46:19.708Z,100.00
2023-01-09T14:49:38.393Z,100.00
2023-01-09T14:52:56.095Z,100.00
2023-01-09T14:56:12.005Z,100.00
2023-01-09T14:59:24.540Z,100.00
2023-01-09T15:02:41.317Z,100.00
2023-01-09T15:05:56.064Z,100.00
2023-01-09T15:09:12.828Z,100.00
2023-01-09T15:12:28.350Z,100.00
2023-01-09T15:15:41.657Z,100.00
2023-01-09T15:18:57.788Z,100.00
2023-01-09T15:22:16.485Z,100.00
2023-01-09T15:25:40.226Z,100.00
2023-01-09T15:28:50.832Z,100.00
2023-01-09T15:32:08.327Z,100.00
2023-01-09T15:35:22.381Z,100.00
2023-01-09T15:38:37.699Z,100.00
2023-01-09T15:42:06.543Z,100.00
2023-01-09T15:45:32.117Z,100.00
2023-01-09T15:48:44.452Z,100.00
2023-01-09T15:51:57.489Z,100.00
2023-01-09T15:55:21.582Z,100.00
2023-01-09T15:58:36.773Z,100.00
2023-01-09T16:01:51.459Z,100.00
2023-01-09T16:05:04.208Z,100.00
2023-01-09T16:08:34.601Z,100.00
2023-01-09T16:11:52.124Z,100.00
2023-01-09T16:15:06.724Z,100.00
2023-01-09T16:18:31.396Z,100.00
2023-01-09T16:21:45.052Z,100.00
2023-01-09T16:24:59.169Z,100.00
2023-01-09T16:28:30.219Z,100.00
2023-01-09T16:31:42.668Z,100.00
2023-01-09T16:35:05.675Z,100.00
2023-01-09T16:38:21.158Z,100.00
2023-01-09T16:41:47.512Z,100.00
2023-01-09T16:45:00.367Z,100.00
2023-01-09T16:48:20.471Z,100.00
2023-01-09T16:51:33.024Z,100.00
2023-01-09T16:54:46.972Z,100.00
2023-01-09T16:57:59.597Z,100.00
2023-01-09T17:01:13.562Z,100.00
2023-01-09T17:04:28.251Z,100.00
2023-01-09T17:07:40.719Z,100.00
2023-01-09T17:10:52.630Z,100.00
2023-01-09T17:14:06.199Z,100.00
2023-01-09T17:17:19.962Z,100.00
2023-01-09T17:20:32.961Z,100.00
2023-01-09T17:23:44.879Z,100.00
2023-01-09T17:27:12.914Z,100.00
2023-01-09T17:30:26.755Z,100.00
2023-01-09T17:33:39.839Z,100.00
2023-01-09T17:36:53.026Z,100.00
2023-01-09T17:40:05.534Z,100.00
2023-01-09T17:43:19.064Z,100.00
2023-01-09T17:46:36.415Z,100.00
2023-01-09T17:49:48.866Z,100.00
2023-01-09T17:53:00.911Z,100.00
2023-01-09T17:56:15.773Z,100.00
2023-01-09T17:59:29.342Z,100.00
2023-01-09T18:02:41.544Z,100.00
2023-01-09T18:05:53.886Z,100.00
2023-01-09T18:09:06.708Z,100.00
2023-01-09T18:12:19.420Z,100.00
2023-01-09T18:15:31.478Z,100.00
2023-01-09T18:18:44.950Z,100.00
2023-01-09T18:21:59.056Z,100.00
2023-01-09T18:25:13.254Z,100.00
2023-01-09T18:28:25.723Z,100.00
2023-01-09T18:31:38.064Z,100.00
2023-01-09T18:34:50.244Z,100.00
2023-01-09T18:38:02.412Z,100.00
2023-01-09T18:41:14.704Z,100.00
2023-01-09T18:44:27.904Z,100.00
2023-01-09T18:47:39.814Z,100.00
2023-01-09T18:50:52.291Z,100.00
2023-01-09T18:54:04.768Z,100.00
2023-01-09T18:57:16.885Z,100.00
2023-01-09T19:00:29.595Z,100.00
2023-01-09T19:03:42.054Z,100.00
2023-01-09T19:06:56.199Z,100.00
2023-01-09T19:10:09.143Z,100.00
2023-01-09T19:13:21.129Z,100.00
2023-01-09T19:16:33.240Z,100.00
2023-01-09T19:19:45.679Z,100.00
2023-01-09T19:22:58.156Z,100.00
2023-01-09T19:26:13.509Z,100.00
2023-01-09T19:29:25.715Z,100.00
2023-01-09T19:32:39.923Z,100.00
2023-01-09T19:35:56.069Z,100.00
2023-01-09T19:39:10.194Z,100.00
2023-01-09T19:42:23.601Z,100.00
2023-01-09T19:45:35.682Z,100.00
2023-01-09T19:48:48.109Z,100.00
2023-01-09T19:52:01.187Z,100.00
2023-01-09T19:55:15.017Z,100.00
2023-01-09T19:58:27.869Z,100.00
2023-01-09T20:01:42.710Z,100.00
2023-01-09T20:04:55.459Z,100.00
2023-01-09T20:08:08.633Z,100.00
2023-01-09T20:11:21.744Z,100.00
2023-01-09T20:14:36.085Z,100.00
2023-01-09T20:17:48.338Z,100.00
2023-01-09T20:21:00.901Z,100.00
2023-01-09T20:24:15.322Z,100.00
2023-01-09T20:27:27.376Z,100.00
2023-01-09T20:30:39.442Z,100.00
2023-01-09T20:33:53.032Z,100.00
2023-01-09T20:37:05.408Z,100.00
2023-01-09T20:40:19.273Z,100.00
2023-01-09T20:43:32.055Z,100.00
2023-01-09T20:46:47.454Z,100.00
2023-01-09T20:49:59.895Z,100.00
2023-01-09T20:53:12.522Z,100.00
2023-01-09T20:56:24.858Z,100.00
2023-01-09T20:59:37.134Z,100.00
2023-01-09T21:02:49.456Z,100.00
2023-01-09T21:06:01.869Z,100.00
2023-01-09T21:09:14.626Z,100.00
2023-01-09T21:12:31.886Z,100.00
2023-01-09T21:15:45.219Z,100.00
2023-01-09T21:18:58.761Z,100.00
2023-01-09T21:22:11.189Z,100.00
2023-01-09T21:25:23.582Z,100.00
2023-01-09T21:28:37.958Z,100.00
2023-01-09T21:31:50.280Z,100.00
2023-01-09T21:35:04.919Z,100.00
2023-01-09T21:38:17.182Z,100.00
2023-01-09T21:41:43.433Z,100.00
2023-01-09T21:45:10.041Z,100.00
2023-01-09T21:48:23.634Z,100.00
2023-01-09T21:51:37.991Z,100.00
2023-01-09T21:54:50.742Z,100.00
2023-01-09T21:58:04.289Z,100.00
2023-01-09T22:01:16.553Z,100.00
2023-01-09T22:04:33.480Z,100.00
2023-01-09T22:07:45.799Z,100.00
2023-01-09T22:11:04.667Z,100.00
2023-01-09T22:14:19.694Z,100.00
2023-01-09T22:17:31.904Z,100.00
2023-01-09T22:20:44.162Z,100.00
2023-01-09T22:23:57.552Z,100.00
2023-01-09T22:27:09.823Z,100.00
2023-01-09T22:30:23.208Z,100.00
2023-01-09T22:33:35.574Z,100.00
2023-01-09T22:36:48.346Z,100.00
2023-01-09T22:40:00.548Z,100.00
2023-01-09T22:43:14.825Z,100.00
2023-01-09T22:46:27.269Z,100.00
2023-01-09T22:49:52.460Z,100.00
2023-01-09T22:52:53.640Z,100.00
2023-01-09T22:56:08.441Z,100.00
2023-01-09T22:59:20.567Z,100.00
2023-01-09T23:02:32.837Z,100.00
2023-01-09T23:05:45.285Z,100.00
2023-01-09T23:08:58.503Z,100.00
2023-01-09T23:12:11.558Z,100.00
2023-01-09T23:15:24.143Z,100.00
2023-01-09T23:18:36.796Z,100.00
2023-01-09T23:21:49.599Z,100.00
2023-01-09T23:25:01.702Z,100.00
2023-01-09T23:28:14.037Z,100.00
2023-01-09T23:31:26.457Z,100.00
2023-01-09T23:34:39.482Z,100.00
2023-01-09T23:37:51.643Z,100.00
2023-01-09T23:41:04.626Z,100.00
2023-01-09T23:44:16.849Z,100.00
2023-01-09T23:47:30.673Z,100.00
2023-01-09T23:50:43.881Z,100.00
2023-01-09T23:53:56.173Z,100.00
2023-01-09T23:57:08.765Z,100.00
